Time;durP1;ratioP1;P1;durP2;ratioP2;P2;SDS_P1;SDS_P2;PMS_P1;PMS_P2;Temp;Humidity;BMP_temperature;BMP_pressure;BME280_temperature;BME280_humidity;BME280_pressure;Samples;Min_cycle;Max_cycle;Signal;HPM_P1;HPM_P2
2021/07/23 00:01:16;;;;;;;7.28;4.40;;;14.30;95.80;;;;;;5029230;28;20029;-66
2021/07/23 00:03:41;;;;;;;7.88;5.22;;;14.20;95.80;;;;;;5019837;28;20510;-68
2021/07/23 00:06:07;;;;;;;6.88;3.95;;;14.20;96.00;;;;;;5031190;28;20033;-67
2021/07/23 00:08:32;;;;;;;7.47;4.60;;;14.20;96.10;;;;;;5030482;28;20507;-67
2021/07/23 00:10:58;;;;;;;5.60;4.63;;;14.10;96.10;;;;;;5029181;28;20068;-67
2021/07/23 00:13:24;;;;;;;7.18;4.63;;;14.10;96.20;;;;;;5031876;28;20091;-67
2021/07/23 00:15:49;;;;;;;7.57;4.97;;;14.10;96.30;;;;;;5027977;28;20034;-67
2021/07/23 00:18:16;;;;;;;7.30;4.90;;;14.10;96.40;;;;;;5032112;28;20025;-68
2021/07/23 00:20:42;;;;;;;9.23;4.43;;;14.00;96.40;;;;;;5030058;28;20025;-67
2021/07/23 00:23:07;;;;;;;5.35;4.20;;;14.00;96.50;;;;;;5031201;28;20034;-67
2021/07/23 00:25:35;;;;;;;7.90;4.63;;;13.90;96.50;;;;;;5029618;28;20562;-67
2021/07/23 00:28:01;;;;;;;7.45;4.75;;;13.90;96.60;;;;;;5030828;28;20049;-67
2021/07/23 00:30:26;;;;;;;11.23;5.53;;;13.80;96.70;;;;;;5029419;28;20056;-67
2021/07/23 00:32:52;;;;;;;9.65;5.28;;;13.80;96.80;;;;;;5020679;28;20076;-67
2021/07/23 00:35:17;;;;;;;7.18;5.57;;;13.80;96.90;;;;;;5033390;28;20380;-68
2021/07/23 00:37:43;;;;;;;10.68;4.70;;;13.70;96.90;;;;;;5031924;28;20026;-68
2021/07/23 00:40:09;;;;;;;7.45;5.30;;;13.70;97.00;;;;;;5034384;28;20025;-68
2021/07/23 00:42:38;;;;;;;9.57;5.25;;;13.70;97.10;;;;;;5035539;28;20041;-68
2021/07/23 00:45:05;;;;;;;7.70;5.55;;;13.70;97.20;;;;;;5032462;28;20036;-67
2021/07/23 00:47:31;;;;;;;7.65;5.82;;;13.60;97.20;;;;;;5034707;28;20400;-67
2021/07/23 00:49:56;;;;;;;8.95;5.40;;;13.60;97.30;;;;;;5034354;28;20490;-67
2021/07/23 00:52:22;;;;;;;8.43;5.35;;;13.60;97.50;;;;;;5032661;28;20025;-67
2021/07/23 00:54:48;;;;;;;7.78;5.10;;;13.60;97.50;;;;;;5035482;28;20029;-69
2021/07/23 00:57:14;;;;;;;6.22;5.43;;;13.60;97.60;;;;;;5033713;28;20038;-67
2021/07/23 00:59:39;;;;;;;8.82;5.60;;;13.50;97.60;;;;;;5034642;28;20032;-67
2021/07/23 01:02:05;;;;;;;8.98;5.28;;;13.50;97.70;;;;;;5033547;28;20119;-67
2021/07/23 01:04:32;;;;;;;7.43;5.22;;;13.50;97.70;;;;;;5032913;28;20541;-68
2021/07/23 01:06:57;;;;;;;8.30;6.00;;;13.40;97.80;;;;;;5033963;28;20032;-67
2021/07/23 01:09:23;;;;;;;9.15;5.68;;;13.40;97.90;;;;;;5033263;28;20112;-67
2021/07/23 01:11:49;;;;;;;7.28;4.93;;;13.40;97.90;;;;;;5023757;28;20099;-67
2021/07/23 01:14:14;;;;;;;14.20;6.68;;;13.30;98.00;;;;;;5024588;28;20076;-67
2021/07/23 01:16:41;;;;;;;9.95;6.18;;;13.30;98.10;;;;;;5033083;28;20034;-67
2021/07/23 01:19:10;;;;;;;9.80;5.97;;;13.20;98.20;;;;;;5032443;28;20030;-67
2021/07/23 01:21:36;;;;;;;10.30;5.88;;;13.20;98.40;;;;;;5034872;28;20025;-67
2021/07/23 01:24:02;;;;;;;8.50;5.63;;;13.10;98.40;;;;;;5032030;28;20087;-67
2021/07/23 01:26:28;;;;;;;9.80;5.43;;;13.10;98.40;;;;;;5031620;28;20384;-67
2021/07/23 01:28:53;;;;;;;9.50;5.57;;;13.00;98.50;;;;;;5026245;28;20028;-67
2021/07/23 01:31:19;;;;;;;8.27;5.53;;;12.90;98.50;;;;;;5033634;28;20079;-67
2021/07/23 01:33:44;;;;;;;11.60;6.35;;;12.90;98.60;;;;;;5031411;28;20037;-67
2021/07/23 01:36:10;;;;;;;9.35;5.75;;;12.80;98.80;;;;;;5033741;28;20388;-67
2021/07/23 01:38:37;;;;;;;9.07;5.72;;;12.80;99.00;;;;;;5032553;28;20102;-67
2021/07/23 01:41:03;;;;;;;10.13;6.18;;;12.80;99.10;;;;;;5034331;28;20030;-67
2021/07/23 01:43:29;;;;;;;8.65;6.00;;;12.80;99.00;;;;;;5023001;28;20037;-68
2021/07/23 01:45:56;;;;;;;10.80;6.82;;;12.80;99.10;;;;;;5030790;28;20038;-67
2021/07/23 01:48:22;;;;;;;9.70;6.40;;;12.80;99.10;;;;;;5033588;28;20033;-67
2021/07/23 01:50:48;;;;;;;9.77;5.85;;;12.80;99.20;;;;;;5033174;28;20167;-67
2021/07/23 01:53:13;;;;;;;12.73;6.60;;;12.70;99.10;;;;;;5033242;28;20384;-67
2021/07/23 01:55:42;;;;;;;9.05;6.35;;;12.70;99.20;;;;;;5030020;28;20029;-67
2021/07/23 01:58:09;;;;;;;13.95;6.35;;;12.60;99.30;;;;;;5015930;28;20083;-67
2021/07/23 02:00:34;;;;;;;8.00;5.43;;;12.60;99.40;;;;;;5031943;28;20041;-67
2021/07/23 02:03:00;;;;;;;10.65;6.82;;;12.60;99.40;;;;;;5034194;28;20373;-67
2021/07/23 02:05:25;;;;;;;10.35;6.20;;;12.60;99.50;;;;;;5032000;28;20029;-67
2021/07/23 02:07:51;;;;;;;10.38;6.30;;;12.60;99.60;;;;;;5031051;28;20052;-67
2021/07/23 02:10:16;;;;;;;9.90;6.03;;;12.50;99.60;;;;;;5029423;28;20036;-67
2021/07/23 02:12:42;;;;;;;10.68;5.93;;;12.50;99.60;;;;;;5031615;28;20049;-67
2021/07/23 02:15:08;;;;;;;12.52;6.47;;;12.50;99.60;;;;;;5016468;28;20026;-67
2021/07/23 02:17:33;;;;;;;8.57;5.82;;;12.50;99.70;;;;;;5031724;28;20117;-67
2021/07/23 02:19:59;;;;;;;8.52;5.63;;;12.40;99.70;;;;;;5024931;28;20108;-67
2021/07/23 02:22:24;;;;;;;9.27;6.50;;;12.40;99.80;;;;;;5031461;28;20434;-67
2021/07/23 02:24:50;;;;;;;11.55;6.15;;;12.40;99.80;;;;;;5024136;28;20370;-67
2021/07/23 02:27:16;;;;;;;9.43;5.78;;;12.30;99.90;;;;;;5032271;28;20031;-67
2021/07/23 02:29:41;;;;;;;8.73;5.97;;;12.30;99.90;;;;;;5033592;28;20018;-67
2021/07/23 02:32:07;;;;;;;10.35;5.78;;;12.20;99.90;;;;;;5030336;28;20022;-67
2021/07/23 02:34:33;;;;;;;15.02;7.85;;;12.20;99.90;;;;;;5033502;28;20471;-67
2021/07/23 02:36:59;;;;;;;9.82;6.95;;;12.20;99.90;;;;;;5028771;28;20022;-67
2021/07/23 02:39:25;;;;;;;10.05;6.93;;;12.20;99.90;;;;;;5031706;28;20514;-67
2021/07/23 02:41:51;;;;;;;9.38;6.60;;;12.20;99.90;;;;;;5031224;28;20463;-67
2021/07/23 02:44:17;;;;;;;11.23;6.43;;;12.20;99.90;;;;;;5029416;28;20436;-67
2021/07/23 02:46:42;;;;;;;14.13;6.57;;;12.10;99.90;;;;;;5029430;28;20152;-67
2021/07/23 02:49:08;;;;;;;12.80;7.03;;;12.10;99.90;;;;;;5032245;28;20494;-67
2021/07/23 02:51:33;;;;;;;8.60;6.18;;;12.10;99.90;;;;;;5015645;28;20026;-67
2021/07/23 02:53:58;;;;;;;9.27;6.47;;;12.00;99.90;;;;;;5022144;28;20491;-67
2021/07/23 02:56:25;;;;;;;16.77;8.50;;;12.00;99.90;;;;;;5029724;28;20083;-67
2021/07/23 02:58:51;;;;;;;10.10;6.80;;;12.00;99.90;;;;;;5033077;28;20112;-67
2021/07/23 03:01:17;;;;;;;9.93;5.93;;;11.90;99.90;;;;;;5029746;28;20113;-67
2021/07/23 03:03:42;;;;;;;10.15;5.82;;;11.90;99.90;;;;;;5029433;28;20083;-67
2021/07/23 03:06:08;;;;;;;10.18;6.22;;;11.90;99.90;;;;;;5031607;28;20442;-67
2021/07/23 03:08:34;;;;;;;11.25;6.72;;;11.90;99.90;;;;;;5030424;28;20473;-67
2021/07/23 03:11:02;;;;;;;10.25;6.97;;;11.80;99.90;;;;;;5030674;28;20175;-67
2021/07/23 03:13:28;;;;;;;13.68;7.07;;;11.80;99.90;;;;;;5031732;28;20463;-67
2021/07/23 03:15:54;;;;;;;9.82;6.88;;;11.70;99.90;;;;;;5031579;28;20065;-67
2021/07/23 03:18:20;;;;;;;12.88;7.38;;;11.70;99.90;;;;;;5031575;28;20039;-67
2021/07/23 03:20:45;;;;;;;12.52;7.68;;;11.70;99.90;;;;;;5032094;28;20025;-67
2021/07/23 03:23:11;;;;;;;11.88;7.55;;;11.60;99.90;;;;;;5030763;28;20080;-67
2021/07/23 03:25:37;;;;;;;16.23;7.00;;;11.60;99.90;;;;;;5013788;28;20022;-68
2021/07/23 03:28:03;;;;;;;12.07;7.47;;;11.60;99.90;;;;;;5025237;28;20108;-67
2021/07/23 03:30:28;;;;;;;12.32;7.68;;;11.60;99.90;;;;;;5030484;28;20108;-67
2021/07/23 03:32:54;;;;;;;12.85;7.50;;;11.60;99.90;;;;;;5021610;28;20033;-67
2021/07/23 03:35:20;;;;;;;11.75;7.28;;;11.60;99.90;;;;;;5032077;28;20034;-67
2021/07/23 03:37:45;;;;;;;13.00;7.55;;;11.60;99.90;;;;;;5032398;28;20075;-67
2021/07/23 03:40:11;;;;;;;15.70;8.00;;;11.60;99.90;;;;;;5030905;28;20112;-67
2021/07/23 03:42:37;;;;;;;10.63;7.07;;;11.60;99.90;;;;;;5032340;28;20065;-67
2021/07/23 03:45:03;;;;;;;13.52;8.68;;;11.60;99.90;;;;;;5031356;28;20025;-67
2021/07/23 03:47:29;;;;;;;13.15;7.40;;;11.50;99.90;;;;;;5027878;28;20112;-67
2021/07/23 03:49:54;;;;;;;11.98;7.45;;;11.50;99.90;;;;;;5032433;28;20504;-67
2021/07/23 03:52:19;;;;;;;12.60;7.20;;;11.50;99.90;;;;;;5031017;28;20033;-67
2021/07/23 03:54:45;;;;;;;14.38;7.45;;;11.50;99.90;;;;;;5030428;28;20033;-67
2021/07/23 03:57:10;;;;;;;13.75;8.90;;;11.50;99.90;;;;;;5030228;28;20033;-67
2021/07/23 03:59:36;;;;;;;12.50;7.18;;;11.50;99.90;;;;;;5030215;28;20103;-67
2021/07/23 04:02:02;;;;;;;12.38;6.88;;;11.50;99.90;;;;;;5030708;28;20432;-67
2021/07/23 04:04:28;;;;;;;11.10;7.15;;;11.50;99.90;;;;;;5029454;28;20387;-67
2021/07/23 04:06:55;;;;;;;10.02;6.82;;;11.50;99.90;;;;;;5030944;28;20076;-67
2021/07/23 04:09:20;;;;;;;11.65;7.85;;;11.50;99.90;;;;;;5036614;28;20029;-67
2021/07/23 04:11:49;;;;;;;14.07;8.10;;;11.50;99.90;;;;;;5031234;28;20029;-67
2021/07/23 04:14:14;;;;;;;12.05;7.80;;;11.50;99.90;;;;;;5033340;28;20464;-67
2021/07/23 04:16:40;;;;;;;11.60;8.60;;;11.60;99.90;;;;;;5033884;28;20116;-67
2021/07/23 04:19:05;;;;;;;14.77;8.30;;;11.50;99.90;;;;;;5035053;28;20357;-67
2021/07/23 04:21:31;;;;;;;13.65;8.45;;;11.50;99.90;;;;;;5027704;28;20515;-67
2021/07/23 04:23:58;;;;;;;14.27;7.75;;;11.60;99.90;;;;;;5016504;28;20030;-67
2021/07/23 04:26:24;;;;;;;13.07;7.72;;;11.60;99.90;;;;;;5028590;28;20426;-67
2021/07/23 04:28:49;;;;;;;13.00;8.52;;;11.60;99.90;;;;;;5021337;28;20026;-67
2021/07/23 04:31:15;;;;;;;10.93;7.45;;;11.60;99.90;;;;;;5034279;28;20065;-67
2021/07/23 04:33:40;;;;;;;11.50;7.72;;;11.70;99.90;;;;;;5034071;28;20068;-67
2021/07/23 04:36:06;;;;;;;14.63;9.02;;;11.70;99.90;;;;;;5029646;28;20488;-67
2021/07/23 04:38:31;;;;;;;15.43;9.00;;;11.80;99.90;;;;;;5031399;28;20030;-67
2021/07/23 04:40:57;;;;;;;12.65;8.73;;;11.80;99.90;;;;;;5027461;28;20079;-67
2021/07/23 04:43:22;;;;;;;15.38;8.77;;;11.90;99.90;;;;;;5030552;28;20037;-67
2021/07/23 04:45:48;;;;;;;12.95;8.98;;;11.90;99.90;;;;;;5033744;28;20025;-66
2021/07/23 04:48:13;;;;;;;12.98;8.27;;;12.00;99.90;;;;;;5034273;28;20029;-67
2021/07/23 04:50:39;;;;;;;12.65;8.55;;;12.00;99.90;;;;;;5030975;28;20025;-67
2021/07/23 04:53:04;;;;;;;13.63;8.77;;;12.10;99.90;;;;;;5025479;28;20029;-67
2021/07/23 04:55:30;;;;;;;14.38;9.20;;;12.10;99.90;;;;;;5032406;28;20033;-67
2021/07/23 04:57:55;;;;;;;12.40;7.93;;;12.20;99.90;;;;;;5029539;28;20074;-67
2021/07/23 05:00:21;;;;;;;13.60;8.32;;;12.30;99.90;;;;;;5031087;28;20045;-67
2021/07/23 05:02:53;;;;;;;13.05;8.65;;;12.40;99.90;;;;;;5032556;28;20030;-67
2021/07/23 05:05:21;;;;;;;12.82;7.93;;;12.40;99.90;;;;;;5034623;28;20184;-67
2021/07/23 05:07:47;;;;;;;14.15;8.20;;;12.50;99.90;;;;;;5030454;28;20058;-67
2021/07/23 05:10:12;;;;;;;14.93;8.32;;;12.60;99.90;;;;;;5028346;28;20029;-67
2021/07/23 05:12:38;;;;;;;16.25;9.48;;;12.70;99.90;;;;;;5024131;28;20159;-67
2021/07/23 05:15:06;;;;;;;14.48;8.73;;;12.80;99.90;;;;;;5033586;28;20045;-67
2021/07/23 05:17:32;;;;;;;18.15;10.63;;;12.90;99.90;;;;;;5032209;28;20083;-67
2021/07/23 05:20:00;;;;;;;13.95;9.38;;;12.90;99.90;;;;;;5033660;28;20029;-67
2021/07/23 05:22:26;;;;;;;16.73;9.45;;;13.10;99.90;;;;;;5033941;28;20080;-67
2021/07/23 05:24:52;;;;;;;11.52;7.57;;;13.30;99.90;;;;;;5034616;28;20029;-67
2021/07/23 05:27:17;;;;;;;15.43;7.50;;;13.60;99.90;;;;;;5033327;28;20021;-67
2021/07/23 05:29:43;;;;;;;12.63;6.25;;;14.00;99.90;;;;;;5033413;28;20033;-67
2021/07/23 05:32:08;;;;;;;10.20;7.05;;;14.40;99.90;;;;;;5032685;28;20052;-67
2021/07/23 05:34:34;;;;;;;10.68;6.45;;;14.70;99.90;;;;;;5031617;28;20036;-67
2021/07/23 05:36:59;;;;;;;8.15;6.28;;;15.00;99.90;;;;;;5034310;28;20025;-67
2021/07/23 05:39:25;;;;;;;7.88;6.07;;;15.30;99.90;;;;;;5031268;28;20371;-67
2021/07/23 05:41:50;;;;;;;9.60;6.28;;;15.60;99.90;;;;;;5034605;28;20468;-67
2021/07/23 05:44:16;;;;;;;8.68;6.07;;;15.90;99.90;;;;;;5033522;28;20057;-67
2021/07/23 05:46:41;;;;;;;8.68;5.75;;;16.20;99.80;;;;;;5019005;28;20038;-67
2021/07/23 05:49:07;;;;;;;8.43;6.40;;;16.50;99.30;;;;;;5031276;28;20490;-67
2021/07/23 05:51:32;;;;;;;11.60;6.70;;;16.60;98.70;;;;;;5029569;28;20033;-67
2021/07/23 05:53:58;;;;;;;9.65;7.18;;;16.70;97.90;;;;;;5021195;28;20030;-67
2021/07/23 05:56:23;;;;;;;8.77;6.30;;;16.70;97.30;;;;;;5016884;28;20036;-67
2021/07/23 05:58:49;;;;;;;10.38;7.03;;;16.70;96.90;;;;;;5026509;28;20044;-68
2021/07/23 06:01:14;;;;;;;10.25;6.18;;;16.70;96.70;;;;;;5022496;28;20167;-68
2021/07/23 06:03:40;;;;;;;9.30;6.88;;;16.70;96.50;;;;;;5032734;28;20574;-68
2021/07/23 06:06:06;;;;;;;11.63;7.35;;;16.70;96.10;;;;;;5032042;28;20026;-68
2021/07/23 06:08:31;;;;;;;10.43;6.90;;;16.80;96.00;;;;;;5031137;28;20029;-68
2021/07/23 06:11:02;;;;;;;10.32;7.22;;;16.90;95.90;;;;;;5031510;28;20377;-68
2021/07/23 06:13:28;;;;;;;10.00;6.78;;;16.90;95.90;;;;;;5028666;28;20049;-68
2021/07/23 06:15:53;;;;;;;9.10;7.22;;;16.80;95.30;;;;;;5028322;28;20162;-68
2021/07/23 06:18:19;;;;;;;10.68;6.97;;;16.90;94.90;;;;;;5032413;28;20443;-67
2021/07/23 06:20:44;;;;;;;14.05;7.32;;;16.80;94.80;;;;;;5030258;28;20025;-67
2021/07/23 06:23:10;;;;;;;11.00;7.20;;;16.80;94.40;;;;;;5030954;28;20021;-67
2021/07/23 06:25:35;;;;;;;10.55;7.15;;;16.80;94.20;;;;;;5029556;28;20034;-67
2021/07/23 06:28:01;;;;;;;9.07;6.93;;;16.70;94.10;;;;;;5030278;28;20026;-69
2021/07/23 06:30:26;;;;;;;12.13;6.78;;;16.70;94.20;;;;;;5030216;28;20449;-68
2021/07/23 06:32:52;;;;;;;12.93;7.32;;;16.80;94.30;;;;;;5029987;28;20022;-68
2021/07/23 06:35:17;;;;;;;12.60;7.65;;;16.90;94.30;;;;;;5029970;28;20108;-68
2021/07/23 06:37:43;;;;;;;10.15;6.32;;;17.00;94.20;;;;;;5030366;28;20121;-68
2021/07/23 06:40:09;;;;;;;9.57;6.70;;;17.10;94.10;;;;;;5025489;28;20029;-69
2021/07/23 06:42:36;;;;;;;11.40;6.63;;;17.10;93.80;;;;;;5028607;28;20021;-68
2021/07/23 06:45:03;;;;;;;7.88;5.55;;;17.10;93.80;;;;;;5029325;28;20037;-68
2021/07/23 06:47:28;;;;;;;10.88;5.93;;;17.20;93.80;;;;;;5030881;28;20395;-68
2021/07/23 06:49:53;;;;;;;8.88;5.63;;;17.30;93.40;;;;;;5030345;28;20203;-69
2021/07/23 06:52:19;;;;;;;7.05;4.78;;;17.40;93.30;;;;;;5027668;28;20034;-68
2021/07/23 06:54:45;;;;;;;5.78;4.03;;;17.50;93.30;;;;;;5027224;28;20036;-68
2021/07/23 06:57:11;;;;;;;4.90;3.63;;;17.60;93.30;;;;;;5030251;28;20480;-69
2021/07/23 06:59:36;;;;;;;7.18;4.15;;;17.70;93.00;;;;;;5030497;28;20044;-69
2021/07/23 07:02:02;;;;;;;7.00;4.18;;;17.80;92.50;;;;;;5027752;28;20037;-68
2021/07/23 07:04:28;;;;;;;8.18;4.00;;;17.90;92.30;;;;;;5030855;28;20076;-68
2021/07/23 07:06:54;;;;;;;5.45;2.95;;;17.90;92.10;;;;;;5031175;28;20033;-68
2021/07/23 07:09:24;;;;;;;6.30;3.70;;;18.10;92.10;;;;;;5030516;28;20468;-68
2021/07/23 07:11:51;;;;;;;7.35;2.67;;;18.20;91.80;;;;;;5026691;28;20036;-68
2021/07/23 07:14:16;;;;;;;5.75;3.10;;;18.20;91.50;;;;;;5028459;28;20519;-68
2021/07/23 07:16:42;;;;;;;5.57;3.13;;;18.30;91.40;;;;;;5030288;28;20029;-68
2021/07/23 07:19:07;;;;;;;6.80;3.22;;;18.40;90.50;;;;;;5029477;28;20028;-68
2021/07/23 07:21:33;;;;;;;4.97;2.92;;;18.40;90.50;;;;;;5026076;28;20029;-69
2021/07/23 07:24:00;;;;;;;5.15;2.97;;;18.40;90.60;;;;;;5027742;28;20025;-68
2021/07/23 07:26:27;;;;;;;4.93;2.65;;;18.40;90.90;;;;;;5024968;28;20135;-68
2021/07/23 07:28:53;;;;;;;3.55;2.80;;;18.50;90.50;;;;;;5015560;28;20083;-67
2021/07/23 07:31:18;;;;;;;5.53;2.88;;;18.60;90.20;;;;;;5029699;28;20068;-67
2021/07/23 07:33:44;;;;;;;5.00;3.83;;;18.70;90.10;;;;;;5026868;28;20060;-67
2021/07/23 07:36:11;;;;;;;5.82;2.33;;;18.80;89.20;;;;;;5030157;28;20025;-67
2021/07/23 07:38:37;;;;;;;4.68;2.90;;;18.80;89.20;;;;;;5020090;28;20026;-68
2021/07/23 07:41:03;;;;;;;3.95;2.70;;;18.80;88.70;;;;;;5025296;28;20432;-67
2021/07/23 07:43:28;;;;;;;5.70;2.95;;;18.90;88.60;;;;;;5027375;28;21255;-67
2021/07/23 07:45:55;;;;;;;4.72;2.63;;;19.00;88.30;;;;;;5028184;28;20071;-68
2021/07/23 07:48:21;;;;;;;6.03;2.92;;;19.00;88.20;;;;;;5034269;28;20076;-67
2021/07/23 07:50:47;;;;;;;5.45;2.55;;;19.20;86.50;;;;;;5034497;28;20476;-67
2021/07/23 07:53:12;;;;;;;4.38;2.35;;;19.10;86.40;;;;;;5029749;28;20037;-67
2021/07/23 07:55:38;;;;;;;5.28;2.55;;;19.20;85.80;;;;;;5033499;28;20040;-67
2021/07/23 07:58:04;;;;;;;3.17;2.00;;;19.20;86.00;;;;;;5026437;28;20048;-67
2021/07/23 08:00:29;;;;;;;5.45;2.03;;;19.40;86.40;;;;;;5032686;28;20037;-67
2021/07/23 08:02:55;;;;;;;4.80;2.55;;;19.50;84.20;;;;;;5026007;28;20049;-67
2021/07/23 08:05:21;;;;;;;3.45;2.30;;;19.50;83.80;;;;;;5027995;28;20033;-67
2021/07/23 08:07:46;;;;;;;4.43;2.58;;;19.40;84.30;;;;;;5027482;28;20086;-68
2021/07/23 08:10:14;;;;;;;4.07;2.70;;;19.60;84.20;;;;;;5027684;28;20021;-67
2021/07/23 08:12:40;;;;;;;4.75;2.35;;;19.60;83.80;;;;;;5027932;28;20045;-68
2021/07/23 08:15:07;;;;;;;2.95;1.83;;;19.60;83.30;;;;;;5027243;28;20029;-68
2021/07/23 08:17:32;;;;;;;5.10;2.35;;;19.60;83.70;;;;;;5026982;28;20061;-67
2021/07/23 08:20:00;;;;;;;6.60;3.28;;;19.60;83.10;;;;;;5025367;28;20069;-67
2021/07/23 08:22:27;;;;;;;5.30;2.83;;;19.60;82.60;;;;;;5021867;28;20114;-67
2021/07/23 08:24:54;;;;;;;4.55;2.65;;;19.60;82.50;;;;;;5024584;28;20037;-67
2021/07/23 08:27:21;;;;;;;5.03;2.85;;;19.60;82.70;;;;;;5025011;28;20030;-68
2021/07/23 08:29:47;;;;;;;4.50;2.80;;;19.70;82.50;;;;;;5026473;28;20030;-67
2021/07/23 08:32:13;;;;;;;4.07;2.22;;;19.80;82.40;;;;;;5029450;28;20083;-67
2021/07/23 08:34:39;;;;;;;4.28;2.78;;;20.00;81.20;;;;;;5028877;28;20038;-67
2021/07/23 08:37:05;;;;;;;6.20;2.55;;;19.90;80.50;;;;;;5030047;28;20381;-67
2021/07/23 08:39:31;;;;;;;4.05;2.60;;;20.00;81.00;;;;;;5030887;28;20037;-67
2021/07/23 08:41:57;;;;;;;5.72;2.65;;;20.10;80.90;;;;;;5030065;28;20029;-68
2021/07/23 08:44:25;;;;;;;4.65;2.53;;;20.20;80.10;;;;;;5032231;28;20388;-67
2021/07/23 08:46:52;;;;;;;5.05;2.53;;;20.30;80.00;;;;;;5028189;28;20030;-68
2021/07/23 08:49:18;;;;;;;4.43;2.55;;;20.40;79.30;;;;;;5033740;28;20439;-67
2021/07/23 08:51:50;;;;;;;6.30;2.90;;;20.50;79.00;;;;;;5031771;28;20025;-67
2021/07/23 08:54:16;;;;;;;5.43;2.83;;;20.60;78.90;;;;;;5031390;28;20021;-67
2021/07/23 08:56:46;;;;;;;5.10;2.65;;;20.60;79.20;;;;;;5024335;28;20083;-67
2021/07/23 08:59:12;;;;;;;3.75;2.40;;;20.60;79.80;;;;;;5024884;28;20030;-68
2021/07/23 09:01:57;;;;;;;4.63;2.53;;;20.70;79.80;;;;;;5032842;28;20029;-67
2021/07/23 09:04:44;;;;;;;4.78;2.60;;;20.80;79.30;;;;;;5023976;28;20037;-67
2021/07/23 09:07:15;;;;;;;3.45;2.33;;;21.00;79.20;;;;;;5029783;28;20040;-67
2021/07/23 09:09:41;;;;;;;4.93;2.67;;;21.00;77.40;;;;;;5030382;28;20021;-68
2021/07/23 09:12:07;;;;;;;3.47;2.33;;;21.10;77.80;;;;;;5032088;28;20033;-68
2021/07/23 09:14:34;;;;;;;2.83;1.58;;;21.40;77.20;;;;;;5033642;28;20030;-67
2021/07/23 09:16:59;;;;;;;2.70;1.60;;;21.70;76.50;;;;;;5022269;28;20053;-68
2021/07/23 09:19:25;;;;;;;2.65;1.50;;;21.80;75.20;;;;;;5023501;28;20057;-67
2021/07/23 09:21:58;;;;;;;3.10;2.05;;;21.80;75.20;;;;;;5025835;28;20051;-67
2021/07/23 09:24:24;;;;;;;3.50;1.77;;;21.70;75.00;;;;;;5033616;28;20029;-67
2021/07/23 09:26:50;;;;;;;3.50;1.95;;;21.70;75.50;;;;;;5026454;28;20389;-67
2021/07/23 09:29:16;;;;;;;2.78;1.85;;;21.80;75.00;;;;;;5028811;28;20028;-67
2021/07/23 09:32:08;;;;;;;3.75;2.08;;;21.80;74.40;;;;;;5020099;28;20030;-67
2021/07/23 09:34:34;;;;;;;5.97;1.92;;;21.60;73.70;;;;;;5024679;28;20029;-67
2021/07/23 09:37:06;;;;;;;5.05;2.42;;;21.50;73.70;;;;;;5026080;28;20030;-67
2021/07/23 09:39:32;;;;;;;3.88;2.05;;;21.50;74.40;;;;;;5031464;28;20037;-68
2021/07/23 09:42:01;;;;;;;4.03;2.33;;;21.60;74.30;;;;;;5026698;28;20030;-67
2021/07/23 09:44:27;;;;;;;5.35;2.90;;;21.70;74.00;;;;;;5029663;28;20030;-67
2021/07/23 09:46:53;;;;;;;4.88;2.58;;;21.70;74.60;;;;;;5026132;28;20028;-67
2021/07/23 09:49:28;;;;;;;4.78;2.60;;;21.80;74.20;;;;;;5031298;28;20048;-67
2021/07/23 09:51:55;;;;;;;5.25;2.47;;;22.00;74.20;;;;;;5028370;28;20022;-68
2021/07/23 09:54:21;;;;;;;4.05;2.80;;;22.00;73.60;;;;;;5029620;28;20029;-68
2021/07/23 09:56:48;;;;;;;4.20;2.60;;;22.00;73.50;;;;;;5026509;28;20036;-68
2021/07/23 09:59:42;;;;;;;6.20;2.83;;;22.20;73.70;;;;;;5030425;28;20029;-68
2021/07/23 10:02:16;;;;;;;4.38;2.67;;;22.30;73.80;;;;;;5030591;28;20021;-67
2021/07/23 10:05:02;;;;;;;4.18;2.58;;;22.30;73.20;;;;;;5032221;28;20029;-68
2021/07/23 10:07:37;;;;;;;4.32;1.92;;;22.30;73.30;;;;;;5031498;28;20112;-68
2021/07/23 10:10:05;;;;;;;3.83;2.00;;;22.30;73.60;;;;;;5027301;28;20490;-68
2021/07/23 10:12:32;;;;;;;4.65;2.97;;;22.20;72.70;;;;;;5032159;28;20049;-68
2021/07/23 10:14:58;;;;;;;3.67;2.50;;;22.20;73.30;;;;;;5033510;28;20037;-68
2021/07/23 10:17:24;;;;;;;4.97;2.33;;;22.20;72.30;;;;;;5026339;28;20029;-69
2021/07/23 10:19:55;;;;;;;3.63;2.08;;;22.10;72.60;;;;;;5034125;28;20084;-68
2021/07/23 10:22:22;;;;;;;3.72;1.77;;;22.10;73.50;;;;;;5031761;28;20033;-68
2021/07/23 10:24:48;;;;;;;3.60;2.17;;;22.20;73.50;;;;;;5033501;28;20069;-68
2021/07/23 10:27:14;;;;;;;4.35;2.22;;;22.20;73.10;;;;;;5031507;28;20100;-68
2021/07/23 10:29:47;;;;;;;3.70;2.20;;;22.10;73.20;;;;;;5028544;28;20033;-68
2021/07/23 10:32:27;;;;;;;3.75;2.13;;;22.10;72.70;;;;;;5030429;28;20084;-68
2021/07/23 10:34:58;;;;;;;3.97;2.20;;;22.00;72.80;;;;;;5031462;28;20025;-68
2021/07/23 10:37:30;;;;;;;4.40;2.27;;;21.90;72.70;;;;;;5030076;28;20041;-68
2021/07/23 10:40:07;;;;;;;3.20;2.10;;;21.80;73.40;;;;;;5027218;28;20491;-68
2021/07/23 10:42:34;;;;;;;4.43;2.15;;;21.90;73.70;;;;;;5032435;28;20033;-68
2021/07/23 10:45:03;;;;;;;4.78;2.40;;;22.10;73.20;;;;;;5023426;28;20033;-68
2021/07/23 10:47:36;;;;;;;3.28;2.00;;;22.20;73.50;;;;;;5025092;28;20025;-68
2021/07/23 10:50:04;;;;;;;7.15;2.35;;;22.30;71.70;;;;;;5029630;28;20022;-68
2021/07/23 10:52:36;;;;;;;5.45;1.70;;;22.40;71.70;;;;;;5030003;28;20120;-68
2021/07/23 10:55:13;;;;;;;3.53;1.60;;;22.50;71.60;;;;;;5032859;28;20055;-68
2021/07/23 10:57:40;;;;;;;3.65;2.03;;;22.60;71.40;;;;;;5033002;28;20026;-68
2021/07/23 11:00:06;;;;;;;2.25;1.40;;;22.50;70.90;;;;;;5031350;28;20040;-69
2021/07/23 11:02:32;;;;;;;2.90;1.88;;;22.40;71.00;;;;;;5028216;28;20500;-68
2021/07/23 11:05:07;;;;;;;3.72;2.00;;;22.30;71.10;;;;;;5031358;28;20025;-68
2021/07/23 11:07:33;;;;;;;4.32;2.35;;;22.30;71.30;;;;;;5024121;28;20022;-68
2021/07/23 11:09:59;;;;;;;3.20;1.77;;;22.40;71.20;;;;;;5029835;28;20033;-68
2021/07/23 11:12:28;;;;;;;4.18;1.90;;;22.70;71.30;;;;;;5028577;28;20160;-68
2021/07/23 11:14:55;;;;;;;5.38;2.55;;;23.00;71.00;;;;;;5032315;28;20029;-68
2021/07/23 11:17:21;;;;;;;4.20;2.13;;;23.20;69.90;;;;;;5030142;28;20496;-68
2021/07/23 11:19:48;;;;;;;2.90;1.63;;;23.20;69.50;;;;;;5032379;28;20431;-68
2021/07/23 11:22:25;;;;;;;3.17;1.67;;;23.30;69.50;;;;;;5030744;28;20412;-68
2021/07/23 11:24:55;;;;;;;6.90;2.35;;;23.30;69.90;;;;;;5028843;28;20099;-68
2021/07/23 11:27:28;;;;;;;2.70;1.70;;;23.30;69.00;;;;;;5032402;28;20036;-68
2021/07/23 11:29:54;;;;;;;4.28;1.70;;;23.30;70.30;;;;;;5032204;28;20032;-68
2021/07/23 11:32:21;;;;;;;3.67;2.13;;;23.30;68.70;;;;;;5032425;28;20021;-66
2021/07/23 11:34:48;;;;;;;4.00;1.67;;;22.90;68.30;;;;;;5027662;28;20026;-67
2021/07/23 11:37:25;;;;;;;3.08;1.95;;;22.70;70.70;;;;;;5028848;28;20030;-67
2021/07/23 11:39:56;;;;;;;3.17;1.73;;;22.70;70.60;;;;;;5031451;28;20033;-67
2021/07/23 11:42:23;;;;;;;6.50;2.42;;;22.60;70.60;;;;;;5029687;28;20033;-67
2021/07/23 11:44:50;;;;;;;3.15;2.03;;;22.50;70.10;;;;;;5029678;28;20495;-67
2021/07/23 11:47:25;;;;;;;4.05;2.20;;;22.40;70.70;;;;;;5031320;28;20053;-67
2021/07/23 11:49:51;;;;;;;4.47;2.22;;;22.50;70.50;;;;;;5032312;28;20060;-67
2021/07/23 11:52:20;;;;;;;5.38;2.13;;;22.40;70.20;;;;;;5029957;28;20053;-67
2021/07/23 11:54:46;;;;;;;4.07;2.10;;;22.50;69.80;;;;;;5029939;28;20038;-67
2021/07/23 11:57:13;;;;;;;4.00;1.98;;;22.50;71.20;;;;;;5029051;28;20076;-68
2021/07/23 11:59:38;;;;;;;5.55;2.75;;;22.70;71.00;;;;;;5030817;28;20047;-67
2021/07/23 12:02:08;;;;;;;3.58;2.55;;;22.70;69.40;;;;;;5029759;28;20488;-67
2021/07/23 12:04:34;;;;;;;3.35;1.85;;;22.70;69.60;;;;;;5023257;28;20116;-67
2021/07/23 12:06:59;;;;;;;4.55;2.40;;;22.80;70.10;;;;;;5030514;28;20552;-67
2021/07/23 12:09:25;;;;;;;4.65;2.38;;;22.80;70.20;;;;;;5031101;28;20036;-67
2021/07/23 12:11:51;;;;;;;3.20;2.00;;;22.90;70.40;;;;;;5029593;28;20033;-66
2021/07/23 12:14:17;;;;;;;2.92;1.90;;;22.90;69.70;;;;;;5032302;28;20393;-67
2021/07/23 12:16:44;;;;;;;6.15;2.58;;;22.90;69.60;;;;;;5032107;28;20432;-67
2021/07/23 12:19:17;;;;;;;3.83;2.17;;;22.90;69.10;;;;;;5025571;28;20095;-67
2021/07/23 12:21:42;;;;;;;5.38;2.15;;;22.80;69.30;;;;;;5027711;28;20038;-67
2021/07/23 12:24:10;;;;;;;3.53;2.08;;;22.90;69.60;;;;;;5032513;28;20094;-67
2021/07/23 12:26:38;;;;;;;5.53;2.47;;;22.80;68.80;;;;;;5031663;28;20029;-67
2021/07/23 12:29:06;;;;;;;4.53;2.85;;;22.90;69.20;;;;;;5033329;28;20122;-68
2021/07/23 12:31:33;;;;;;;4.97;2.75;;;22.90;68.60;;;;;;5036011;28;20040;-67
2021/07/23 12:34:18;;;;;;;3.45;2.38;;;22.90;68.90;;;;;;5034377;28;20391;-67
2021/07/23 12:36:51;;;;;;;3.90;2.10;;;22.80;69.00;;;;;;5034057;28;20076;-67
2021/07/23 12:39:19;;;;;;;4.72;2.65;;;22.80;69.60;;;;;;5034162;28;20472;-67
2021/07/23 12:41:45;;;;;;;3.70;2.55;;;22.80;70.10;;;;;;5028120;28;20099;-68